Time;durP1;ratioP1;P1;durP2;ratioP2;P2;SDS_P1;SDS_P2;PMS_P1;PMS_P2;Temp;Humidity;BMP_temperature;BMP_pressure;BME280_temperature;BME280_humidity;BME280_pressure;Samples;Min_cycle;Max_cycle;Signal;HPM_P1;HPM_P2
2023/03/08 00:01:12;;;;;;;4.03;1.55;;;;;;;-144.47;100.00;53096.41;5015761;28;20021;-70
2023/03/08 00:03:37;;;;;;;3.13;1.85;;;;;;;-144.47;100.00;53124.22;5028538;28;20037;-70
2023/03/08 00:06:05;;;;;;;6.45;2.65;;;;;;;-144.47;100.00;53118.28;5028850;28;20109;-70
2023/03/08 00:08:30;;;;;;;11.15;2.40;;;;;;;-144.47;100.00;53130.19;5036545;28;20029;-69
2023/03/08 00:10:55;;;;;;;4.07;2.00;;;;;;;-144.47;100.00;53114.31;5030153;28;20040;-70
2023/03/08 00:13:21;;;;;;;7.43;2.88;;;;;;;-144.47;100.00;53098.41;5032756;28;20032;-68
2023/03/08 00:15:46;;;;;;;4.25;2.13;;;;;;;-144.47;100.00;53124.22;5027997;28;20029;-67
2023/03/08 00:18:11;;;;;;;8.77;2.55;;;;;;;-144.47;100.00;53102.38;5028574;28;20025;-67
2023/03/08 00:20:37;;;;;;;4.57;2.22;;;;;;;-144.47;100.00;53126.22;5028039;28;20021;-68
2023/03/08 00:23:02;;;;;;;5.65;2.80;;;;;;;-144.47;100.00;53110.31;5029114;28;20031;-68
2023/03/08 00:25:27;;;;;;;3.35;2.03;;;;;;;-144.47;100.00;53110.31;5028314;28;20044;-68
2023/03/08 00:27:53;;;;;;;4.00;1.90;;;;;;;-144.47;100.00;53114.31;5028952;28;20430;-67
2023/03/08 00:30:18;;;;;;;4.82;2.22;;;;;;;-144.47;100.00;53106.34;5028590;28;20083;-69
2023/03/08 00:32:43;;;;;;;5.80;1.92;;;;;;;-144.47;100.00;53086.50;5028997;28;20105;-67
2023/03/08 00:35:09;;;;;;;4.82;2.22;;;;;;;-144.47;100.00;53092.44;5010415;28;20041;-68
2023/03/08 00:37:34;;;;;;;4.78;2.15;;;;;;;-144.47;100.00;53130.19;5028904;28;20029;-66
2023/03/08 00:40:00;;;;;;;7.60;2.50;;;;;;;-144.47;100.00;53140.13;5028984;28;20018;-67
2023/03/08 00:42:25;;;;;;;5.95;2.38;;;;;;;-144.47;100.00;53110.31;5029038;28;20480;-69
2023/03/08 00:44:51;;;;;;;6.05;2.53;;;;;;;-144.47;100.00;53100.41;5028140;28;20037;-67
2023/03/08 00:47:16;;;;;;;7.55;3.35;;;;;;;-144.47;100.00;53124.22;5028649;28;20025;-68
2023/03/08 00:49:42;;;;;;;9.52;3.10;;;;;;;-144.47;100.00;53124.22;5022611;28;20039;-69
2023/03/08 00:52:08;;;;;;;8.38;3.78;;;;;;;-144.47;100.00;53114.31;5011005;28;20025;-67
2023/03/08 00:54:34;;;;;;;7.30;3.55;;;;;;;-144.47;100.00;53108.34;5028999;28;20365;-67
2023/03/08 00:56:59;;;;;;;19.40;4.57;;;;;;;-144.47;100.00;53106.34;5028644;28;20029;-69
2023/03/08 00:59:24;;;;;;;10.80;4.20;;;;;;;-144.47;100.00;53086.50;5010631;28;20116;-70
2023/03/08 01:01:50;;;;;;;9.90;4.05;;;;;;;-144.47;100.00;53112.31;5028137;28;20032;-67
2023/03/08 01:04:16;;;;;;;6.25;3.08;;;;;;;-144.47;100.00;53118.28;5028329;28;20026;-68
2023/03/08 01:06:42;;;;;;;10.98;3.28;;;;;;;-144.47;100.00;53102.38;5028694;28;20041;-68
2023/03/08 01:09:08;;;;;;;7.75;3.63;;;;;;;-144.47;100.00;53090.47;5038824;28;20379;-68
2023/03/08 01:11:35;;;;;;;9.18;3.95;;;;;;;-144.47;100.00;53104.38;5028276;28;20060;-68
2023/03/08 01:14:01;;;;;;;13.85;3.85;;;;;;;-144.47;100.00;53120.25;5015131;28;20556;-67
2023/03/08 01:16:29;;;;;;;9.77;3.90;;;;;;;-144.47;100.00;53108.34;5028713;28;20108;-68
2023/03/08 01:18:55;;;;;;;18.80;4.63;;;;;;;-144.47;100.00;53122.25;5028682;28;20026;-69
2023/03/08 01:21:21;;;;;;;10.88;4.55;;;;;;;-144.47;100.00;53114.31;5028829;28;20033;-68
2023/03/08 01:23:47;;;;;;;8.48;4.40;;;;;;;-144.47;100.00;53102.38;5028987;28;20029;-68
2023/03/08 01:26:18;;;;;;;10.85;4.25;;;;;;;-144.47;100.00;53110.31;5028894;28;20495;-68
2023/03/08 01:28:43;;;;;;;8.60;4.28;;;;;;;-144.47;100.00;53118.28;5032602;28;20025;-68
2023/03/08 01:31:23;;;;;;;11.05;4.95;;;;;;;-144.47;100.00;53120.25;5032725;28;20051;-67
2023/03/08 01:33:49;;;;;;;13.57;4.93;;;;;;;-144.47;100.00;53068.63;5032291;28;20026;-67
2023/03/08 01:36:18;;;;;;;9.75;3.90;;;;;;;-144.47;100.00;53094.44;5031862;28;20583;-68
2023/03/08 01:38:44;;;;;;;10.32;4.63;;;;;;;-144.47;100.00;53138.13;5032155;28;20131;-69
2023/03/08 01:41:19;;;;;;;10.35;4.65;;;;;;;-144.47;100.00;53110.31;5032506;28;20074;-69
2023/03/08 01:43:45;;;;;;;14.98;4.32;;;;;;;-144.47;100.00;53116.28;5032472;28;20030;-68
2023/03/08 01:46:26;;;;;;;10.48;5.07;;;;;;;-144.47;100.00;53112.31;5032100;28;20025;-68
2023/03/08 01:49:12;;;;;;;9.30;4.45;;;;;;;-144.47;100.00;53094.44;5027179;28;20491;-67
2023/03/08 01:51:50;;;;;;;11.32;4.43;;;;;;;-144.47;100.00;53096.41;5036524;28;20037;-68
2023/03/08 01:54:16;;;;;;;11.27;5.25;;;;;;;-144.47;100.00;53114.31;5031964;28;20495;-66
2023/03/08 01:56:43;;;;;;;10.60;4.82;;;;;;;-144.47;100.00;53124.22;5031703;28;20056;-67
2023/03/08 01:59:10;;;;;;;11.63;5.38;;;;;;;-144.47;100.00;53082.53;5032211;28;20109;-67
2023/03/08 02:01:36;;;;;;;13.15;4.70;;;;;;;-144.47;100.00;53106.34;5031586;28;20033;-68
2023/03/08 02:04:02;;;;;;;14.20;6.03;;;;;;;-144.47;100.00;53116.28;5030454;28;20040;-70
2023/03/08 02:06:28;;;;;;;12.10;5.15;;;;;;;-144.47;100.00;53108.34;5026711;28;20057;-68
2023/03/08 02:08:54;;;;;;;11.18;5.32;;;;;;;-144.47;100.00;53096.41;5029404;28;20049;-68
2023/03/08 02:11:21;;;;;;;10.48;5.28;;;;;;;-144.47;100.00;53102.38;5047226;28;20028;-70
2023/03/08 02:13:48;;;;;;;14.80;5.75;;;;;;;-144.47;100.00;53110.31;5036168;28;20487;-67
2023/03/08 02:16:16;;;;;;;12.32;5.85;;;;;;;-144.47;100.00;53092.44;5047452;28;20131;-68
2023/03/08 02:19:03;;;;;;;12.57;5.57;;;;;;;-144.47;100.00;53126.22;5017358;28;20052;-67
2023/03/08 02:21:30;;;;;;;13.35;5.88;;;;;;;-144.47;100.00;53118.28;5030408;28;20573;-68
2023/03/08 02:24:05;;;;;;;14.32;5.68;;;;;;;-144.47;100.00;53088.47;5043810;28;20029;-68
2023/03/08 02:26:32;;;;;;;11.32;4.90;;;;;;;-144.47;100.00;53116.28;5032928;28;20029;-67
2023/03/08 02:28:57;;;;;;;11.65;5.20;;;;;;;-144.47;100.00;53150.06;5044872;28;20021;-68
2023/03/08 02:31:22;;;;;;;13.20;4.60;;;;;;;-144.47;100.00;53094.44;5047384;28;20036;-67
2023/03/08 02:33:48;;;;;;;7.72;4.10;;;;;;;-144.47;100.00;53088.47;4994234;28;20057;-68
2023/03/08 02:36:13;;;;;;;8.95;3.72;;;;;;;-144.47;100.00;53120.25;5027454;28;20508;-67
2023/03/08 02:38:38;;;;;;;9.32;3.70;;;;;;;-144.47;100.00;53146.09;5043823;28;20510;-68
2023/03/08 02:41:04;;;;;;;9.90;4.40;;;;;;;-144.47;100.00;53104.38;5048366;28;20100;-67
2023/03/08 02:43:30;;;;;;;8.98;3.95;;;;;;;-144.47;100.00;53076.56;5044852;28;20098;-67
2023/03/08 02:45:55;;;;;;;7.90;3.22;;;;;;;-144.47;100.00;53094.44;5048400;28;20356;-67
2023/03/08 02:48:20;;;;;;;7.93;3.42;;;;;;;-144.47;100.00;53126.22;5033440;28;20020;-66
2023/03/08 02:50:46;;;;;;;7.47;2.92;;;;;;;-144.47;100.00;53074.56;5043086;28;20387;-67
2023/03/08 02:53:11;;;;;;;7.70;2.47;;;;;;;-144.47;100.00;53104.38;5040283;28;20124;-69
2023/03/08 02:55:37;;;;;;;7.25;2.75;;;;;;;-144.47;100.00;53110.31;5031248;28;20114;-68
2023/03/08 02:58:07;;;;;;;4.22;2.10;;;;;;;-144.47;100.00;53130.19;5030613;28;20467;-69
2023/03/08 03:00:33;;;;;;;8.40;2.53;;;;;;;-144.47;100.00;53082.53;5031100;28;20026;-68
2023/03/08 03:02:58;;;;;;;5.20;2.20;;;;;;;-144.47;100.00;53094.44;5029662;28;20060;-68
2023/03/08 03:05:24;;;;;;;4.93;2.38;;;;;;;-144.47;100.00;53128.22;5034962;28;20028;-68
2023/03/08 03:07:49;;;;;;;5.22;2.13;;;;;;;-144.47;100.00;53096.41;5032418;28;20033;-68
2023/03/08 03:10:15;;;;;;;3.30;1.80;;;;;;;-144.47;100.00;53082.53;5042017;28;20451;-67
2023/03/08 03:12:42;;;;;;;6.95;2.25;;;;;;;-144.47;100.00;53112.31;5031164;28;21607;-68
2023/03/08 03:15:09;;;;;;;6.22;2.72;;;;;;;-144.47;100.00;53102.38;5032036;28;20102;-69
2023/03/08 03:17:35;;;;;;;5.55;2.10;;;;;;;-144.47;100.00;53082.53;5032487;28;20517;-68
2023/03/08 03:20:02;;;;;;;5.07;2.35;;;;;;;-144.47;100.00;53104.38;5012830;28;20577;-67
2023/03/08 03:22:27;;;;;;;5.38;2.05;;;;;;;-144.47;100.00;53110.31;5030777;28;20108;-68
2023/03/08 03:24:53;;;;;;;4.10;1.88;;;;;;;-144.47;100.00;53102.38;5031160;28;20490;-69
2023/03/08 03:27:18;;;;;;;3.65;2.10;;;;;;;-144.47;100.00;53106.34;5031204;28;20482;-69
2023/03/08 03:29:44;;;;;;;5.60;2.65;;;;;;;-144.47;100.00;53102.38;5030668;28;20056;-68
2023/03/08 03:32:09;;;;;;;3.80;2.05;;;;;;;-144.47;100.00;53098.41;5031928;28;20025;-69
2023/03/08 03:34:35;;;;;;;4.25;2.30;;;;;;;-144.47;100.00;53092.44;5030643;28;20029;-68
2023/03/08 03:37:00;;;;;;;3.40;1.85;;;;;;;-144.47;100.00;53098.41;5029671;28;20483;-68
2023/03/08 03:39:25;;;;;;;3.50;1.77;;;;;;;-144.47;100.00;53098.41;5030883;28;20116;-69
2023/03/08 03:41:51;;;;;;;6.05;2.25;;;;;;;-144.47;100.00;53106.34;5031125;28;20340;-69
2023/03/08 03:44:16;;;;;;;3.95;1.88;;;;;;;-144.47;100.00;53110.31;5039573;28;20096;-67
2023/03/08 03:46:42;;;;;;;3.92;2.03;;;;;;;-144.47;100.00;53108.34;5035350;28;20037;-68
2023/03/08 03:49:07;;;;;;;6.00;2.47;;;;;;;-144.47;100.00;53112.31;5028099;28;20641;-67
2023/03/08 03:51:33;;;;;;;4.25;2.20;;;;;;;-144.47;100.00;53078.53;5041260;28;20045;-66
2023/03/08 03:53:58;;;;;;;6.20;2.75;;;;;;;-144.47;100.00;53114.31;5010918;28;20099;-68
2023/03/08 03:56:26;;;;;;;3.33;1.90;;;;;;;-144.47;100.00;53112.31;5029607;28;20044;-67
2023/03/08 03:58:52;;;;;;;2.58;1.60;;;;;;;-144.47;100.00;53094.44;5031997;28;20101;-68
2023/03/08 04:01:21;;;;;;;7.75;1.95;;;;;;;-144.47;100.00;53126.22;5032898;28;20020;-70
2023/03/08 04:03:47;;;;;;;4.60;1.75;;;;;;;-144.47;100.00;53106.34;5034556;28;20036;-69
2023/03/08 04:06:13;;;;;;;4.07;2.03;;;;;;;-144.47;100.00;53086.50;5038790;28;20037;-68
2023/03/08 04:08:41;;;;;;;3.20;1.70;;;;;;;-144.47;100.00;53114.31;5038614;28;20035;-68
2023/03/08 04:11:10;;;;;;;3.17;1.73;;;;;;;-144.47;100.00;53106.34;5033059;28;20452;-69
2023/03/08 04:13:36;;;;;;;3.33;1.60;;;;;;;-144.47;100.00;53106.34;5029887;28;20029;-69
2023/03/08 04:16:13;;;;;;;8.10;2.00;;;;;;;-144.47;100.00;53114.31;5033867;28;20094;-69
2023/03/08 04:18:38;;;;;;;6.90;1.80;;;;;;;-144.47;100.00;53108.34;5049213;28;20037;-70
2023/03/08 04:21:04;;;;;;;3.75;2.03;;;;;;;-144.47;100.00;53074.56;5039246;28;20068;-69
2023/03/08 04:23:30;;;;;;;6.30;1.60;;;;;;;-144.47;100.00;53098.41;5041460;28;20024;-70
2023/03/08 04:28:22;;;;;;;3.83;2.00;;;;;;;-144.47;100.00;53108.34;5005531;28;20053;-67
2023/03/08 04:30:47;;;;;;;5.55;2.30;;;;;;;-144.47;100.00;53118.28;5023451;28;20037;-68
2023/03/08 04:33:13;;;;;;;5.30;2.35;;;;;;;-144.47;100.00;53110.31;5009191;28;20409;-69
2023/03/08 04:35:38;;;;;;;5.70;2.53;;;;;;;-144.47;100.00;53106.34;5012218;28;20092;-69
2023/03/08 04:38:04;;;;;;;4.90;2.38;;;;;;;-144.47;100.00;53096.41;5010031;28;20022;-66
2023/03/08 04:40:29;;;;;;;11.38;2.80;;;;;;;-144.47;100.00;53088.47;5007372;28;20029;-69
2023/03/08 04:42:55;;;;;;;9.25;2.22;;;;;;;-144.47;100.00;53114.31;5018329;28;20107;-68
2023/03/08 04:45:20;;;;;;;10.50;2.33;;;;;;;-144.47;100.00;53094.44;5009161;28;20044;-65
2023/03/08 04:47:46;;;;;;;5.05;2.58;;;;;;;-144.47;100.00;53098.41;5000641;28;20121;-68
2023/03/08 04:50:11;;;;;;;4.85;2.13;;;;;;;-144.47;100.00;53116.28;5008824;28;20463;-67
2023/03/08 04:52:37;;;;;;;9.20;3.33;;;;;;;-144.47;100.00;53102.38;5010495;28;20045;-69
2023/03/08 04:55:02;;;;;;;6.22;2.67;;;;;;;-144.47;100.00;53144.09;5007539;28;20018;-68
2023/03/08 04:57:28;;;;;;;4.68;2.65;;;;;;;-144.47;100.00;53144.09;5006509;28;20447;-69
2023/03/08 04:59:53;;;;;;;6.95;3.15;;;;;;;-144.47;100.00;53102.38;5020567;28;20029;-67
2023/03/08 05:02:20;;;;;;;9.35;3.17;;;;;;;-144.47;100.00;53088.47;5010613;28;20168;-69
2023/03/08 05:04:46;;;;;;;7.00;3.33;;;;;;;-144.47;100.00;53086.50;5015139;28;20170;-69
2023/03/08 05:07:11;;;;;;;8.98;3.40;;;;;;;-144.47;100.00;53078.53;5010492;28;20135;-67
2023/03/08 05:09:36;;;;;;;6.80;3.38;;;;;;;-144.47;100.00;53102.38;5023524;28;20727;-67
2023/03/08 05:12:02;;;;;;;7.40;2.90;;;;;;;-144.47;100.00;53108.34;5011297;28;20030;-66
2023/03/08 05:14:27;;;;;;;6.63;2.67;;;;;;;-144.47;100.00;53086.50;5012149;28;20130;-68
2023/03/08 05:16:57;;;;;;;11.15;3.47;;;;;;;-144.47;100.00;53130.19;5011097;28;20032;-68
2023/03/08 05:19:23;;;;;;;5.50;2.92;;;;;;;-144.47;100.00;53154.03;5016429;28;20121;-68
2023/03/08 05:21:49;;;;;;;7.53;3.40;;;;;;;-144.47;100.00;53090.47;5018126;28;20092;-68
2023/03/08 05:24:14;;;;;;;13.50;6.25;;;;;;;-144.47;100.00;53106.34;5010877;28;20411;-66
2023/03/08 05:26:39;;;;;;;13.77;6.20;;;;;;;-144.47;100.00;53102.38;5010250;28;20117;-66
2023/03/08 05:29:05;;;;;;;18.25;8.27;;;;;;;-144.47;100.00;53118.28;5016209;28;20060;-68
2023/03/08 05:31:31;;;;;;;13.32;4.28;;;;;;;-144.47;100.00;53112.31;5015956;28;20033;-67
2023/03/08 05:33:57;;;;;;;11.25;3.90;;;;;;;-144.47;100.00;53098.41;5018751;28;20109;-69
2023/03/08 05:36:22;;;;;;;9.68;3.83;;;;;;;-144.47;100.00;53108.34;5009311;28;20136;-68
2023/03/08 05:38:52;;;;;;;6.85;3.38;;;;;;;-144.47;100.00;53098.41;5010269;28;20036;-68
2023/03/08 05:41:17;;;;;;;13.68;5.05;;;;;;;-144.47;100.00;53104.38;5010580;28;20459;-67
2023/03/08 05:43:43;;;;;;;22.15;9.85;;;;;;;-144.47;100.00;53110.31;5010230;28;20141;-68
2023/03/08 05:46:15;;;;;;;18.92;9.65;;;;;;;-144.47;100.00;53128.22;5010302;28;20030;-68
2023/03/08 05:48:41;;;;;;;21.35;9.10;;;;;;;-144.47;100.00;53122.25;5006846;28;20100;-66
2023/03/08 05:51:12;;;;;;;19.90;9.18;;;;;;;-144.47;100.00;53138.13;5019099;28;20033;-68
2023/03/08 05:53:37;;;;;;;16.05;7.30;;;;;;;-144.47;100.00;53100.41;5006205;28;20021;-70
2023/03/08 05:56:14;;;;;;;13.55;5.68;;;;;;;-144.47;100.00;53106.34;5018934;28;20411;-68
2023/03/08 05:58:40;;;;;;;10.60;5.25;;;;;;;-144.47;100.00;53116.28;5011412;28;20088;-69
2023/03/08 06:01:15;;;;;;;9.95;5.20;;;;;;;-144.47;100.00;53088.47;5009216;28;20212;-67
2023/03/08 06:03:40;;;;;;;12.73;5.70;;;;;;;-144.47;100.00;53100.41;5016431;28;20033;-68
2023/03/08 06:06:05;;;;;;;12.73;5.15;;;;;;;-144.47;100.00;53116.28;5012449;28;20159;-68
2023/03/08 06:08:31;;;;;;;12.50;4.68;;;;;;;-144.47;100.00;53114.31;5012689;28;20082;-67
2023/03/08 06:10:56;;;;;;;13.88;5.53;;;;;;;-144.47;100.00;53102.38;5011939;28;20096;-69
2023/03/08 06:13:21;;;;;;;10.90;5.13;;;;;;;-144.47;100.00;53104.38;5015433;28;20060;-69
2023/03/08 06:15:47;;;;;;;11.70;5.25;;;;;;;-144.47;100.00;53088.47;5012159;28;20041;-69
2023/03/08 06:18:12;;;;;;;11.93;5.55;;;;;;;-144.47;100.00;53078.53;5011179;28;20103;-68
2023/03/08 06:20:38;;;;;;;17.92;6.40;;;;;;;-144.47;100.00;53088.47;5024035;28;20100;-68
2023/03/08 06:23:03;;;;;;;12.98;5.78;;;;;;;-144.47;100.00;53108.34;5013589;28;20033;-66
2023/03/08 06:25:28;;;;;;;11.63;6.32;;;;;;;-144.47;100.00;53096.41;5015523;28;20025;-69
2023/03/08 06:27:54;;;;;;;12.80;5.35;;;;;;;-144.47;100.00;53088.47;5011953;28;20087;-67
2023/03/08 06:30:19;;;;;;;15.80;5.03;;;;;;;-144.47;100.00;53098.41;5012474;28;20490;-68
2023/03/08 06:32:45;;;;;;;9.48;5.28;;;;;;;-144.47;100.00;53094.44;5010926;28;20037;-69
2023/03/08 06:35:11;;;;;;;16.10;5.25;;;;;;;-144.47;100.00;53090.47;5013992;28;20030;-69
2023/03/08 06:37:36;;;;;;;15.73;6.68;;;;;;;-144.47;100.00;53124.22;5012310;28;20367;-67
2023/03/08 06:40:04;;;;;;;10.10;5.20;;;;;;;-144.47;100.00;53114.31;5011277;28;20022;-66
2023/03/08 06:42:29;;;;;;;15.10;5.38;;;;;;;-144.47;100.00;53102.38;5026454;28;20509;-68
2023/03/08 06:44:55;;;;;;;12.55;5.80;;;;;;;-144.47;100.00;53090.47;5019251;28;20104;-67
2023/03/08 06:47:20;;;;;;;11.02;5.22;;;;;;;-144.47;100.00;53106.34;5014174;28;20416;-68
2023/03/08 06:49:45;;;;;;;11.30;5.35;;;;;;;-144.47;100.00;53084.50;5012960;28;20054;-68
2023/03/08 06:52:11;;;;;;;15.65;6.30;;;;;;;-144.47;100.00;53092.44;5011746;28;20379;-67
2023/03/08 06:54:36;;;;;;;16.17;6.25;;;;;;;-144.47;100.00;53072.59;5013567;28;20175;-70
2023/03/08 06:57:01;;;;;;;18.92;7.93;;;;;;;-144.47;100.00;53076.56;5011505;28;20121;-66
2023/03/08 06:59:27;;;;;;;41.25;15.32;;;;;;;-144.47;100.00;53084.50;5011305;28;20097;-67
2023/03/08 07:01:52;;;;;;;35.75;15.50;;;;;;;-144.47;100.00;53076.56;5015993;28;20021;-67
2023/03/08 07:04:17;;;;;;;35.15;16.60;;;;;;;-144.47;100.00;53088.47;5021423;28;20032;-68
2023/03/08 07:06:43;;;;;;;25.45;12.50;;;;;;;-144.47;100.00;53078.53;5016576;28;20054;-68
2023/03/08 07:09:09;;;;;;;19.15;9.57;;;;;;;-144.47;100.00;53082.53;5024339;28;20491;-68
2023/03/08 07:11:34;;;;;;;14.55;7.75;;;;;;;-144.47;100.00;53050.75;5018101;28;20021;-66
2023/03/08 07:14:00;;;;;;;14.65;6.72;;;;;;;-144.47;100.00;53072.59;5010590;28;20033;-68
2023/03/08 07:16:26;;;;;;;15.43;8.27;;;;;;;-144.47;100.00;53070.59;5010653;28;20036;-66
2023/03/08 07:18:52;;;;;;;16.42;8.13;;;;;;;-144.47;100.00;53072.59;5011244;28;20100;-66
2023/03/08 07:21:17;;;;;;;17.08;7.05;;;;;;;-144.47;100.00;53066.63;5010229;28;20113;-68
2023/03/08 07:23:42;;;;;;;16.30;6.75;;;;;;;-144.47;100.00;53044.78;5016399;28;20033;-67
2023/03/08 07:26:10;;;;;;;17.38;7.65;;;;;;;-144.47;100.00;53070.59;5028718;28;20025;-67
2023/03/08 07:28:36;;;;;;;21.67;9.95;;;;;;;-144.47;100.00;53062.66;5013008;28;20076;-67
2023/03/08 07:31:01;;;;;;;23.45;10.00;;;;;;;-144.47;100.00;53026.91;5012956;28;20057;-65
2023/03/08 07:33:30;;;;;;;18.98;9.25;;;;;;;-144.47;100.00;53042.78;5013848;28;20091;-68
2023/03/08 07:36:01;;;;;;;25.25;12.30;;;;;;;-144.47;100.00;53062.66;5013628;28;20046;-67
2023/03/08 07:38:28;;;;;;;17.58;8.10;;;;;;;-144.47;100.00;53046.75;5011114;28;20030;-68
2023/03/08 07:40:55;;;;;;;14.88;8.13;;;;;;;-144.47;100.00;53080.53;5011395;28;20021;-66
2023/03/08 07:43:20;;;;;;;24.13;9.30;;;;;;;-144.47;100.00;53054.72;5021012;28;20025;-69
2023/03/08 07:45:46;;;;;;;20.27;8.55;;;;;;;-144.47;100.00;53072.59;5037504;28;20137;-66
2023/03/08 07:48:11;;;;;;;20.27;9.20;;;;;;;-144.47;100.00;53050.75;5022731;28;20025;-63
2023/03/08 07:50:36;;;;;;;21.70;7.60;;;;;;;-144.47;100.00;53082.53;5030592;28;20025;-68
2023/03/08 07:53:03;;;;;;;17.55;8.10;;;;;;;-144.47;100.00;53062.66;5026111;28;20108;-66
2023/03/08 07:55:28;;;;;;;17.45;7.93;;;;;;;-144.47;100.00;53046.75;5030488;28;20044;-67
2023/03/08 07:57:54;;;;;;;15.27;8.50;;;;;;;-144.47;100.00;53038.81;5027819;28;20034;-65
2023/03/08 08:00:19;;;;;;;20.92;11.27;;;;;;;-144.47;99.52;53044.78;5026730;28;20017;-69
2023/03/08 08:02:46;;;;;;;21.50;9.65;;;;;;;-144.47;99.76;53062.66;5020344;28;20129;-67
2023/03/08 08:05:12;;;;;;;18.02;9.75;;;;;;;-144.47;99.43;53032.88;5019631;28;20033;-66
2023/03/08 08:07:38;;;;;;;22.33;9.43;;;;;;;-144.47;99.38;53042.78;5011479;28;20029;-68
2023/03/08 08:10:04;;;;;;;14.07;7.90;;;;;;;-144.47;99.29;53034.84;5018410;28;20080;-66
2023/03/08 08:12:29;;;;;;;15.13;8.07;;;;;;;-144.47;98.51;53015.00;5011674;28;20062;-67
2023/03/08 08:14:55;;;;;;;16.90;9.32;;;;;;;-144.47;97.58;53038.81;5011488;28;20034;-66
2023/03/08 08:17:21;;;;;;;27.02;10.88;;;;;;;-144.47;97.50;53038.81;5010474;28;20572;-65
2023/03/08 08:19:47;;;;;;;17.20;8.80;;;;;;;-144.47;97.32;53046.75;5011791;28;20104;-67
2023/03/08 08:22:13;;;;;;;16.30;7.55;;;;;;;-144.47;97.51;53015.00;5026457;28;20041;-67
2023/03/08 08:24:39;;;;;;;14.50;6.82;;;;;;;-144.47;97.26;53046.75;5012216;28;20050;-68
2023/03/08 08:27:05;;;;;;;18.80;9.35;;;;;;;-144.47;96.84;53074.56;5029710;28;20079;-66
2023/03/08 08:29:31;;;;;;;15.10;7.13;;;;;;;-144.47;97.23;53054.72;5031643;28;20113;-66
2023/03/08 08:31:56;;;;;;;13.25;6.53;;;;;;;-144.47;97.10;53018.97;5012462;28;20087;-66
2023/03/08 08:34:22;;;;;;;34.58;12.90;;;;;;;-144.47;97.49;53050.75;5011495;28;20030;-67
2023/03/08 08:36:47;;;;;;;57.83;20.27;;;;;;;-144.47;96.57;53022.94;5014840;28;20041;-66
2023/03/08 08:39:16;;;;;;;79.15;21.13;;;;;;;-144.47;96.69;53009.03;5017504;28;20192;-67
2023/03/08 08:41:41;;;;;;;28.55;9.77;;;;;;;-144.47;96.67;53048.75;5022194;28;20098;-65
2023/03/08 08:44:07;;;;;;;14.80;6.45;;;;;;;-144.47;95.49;53028.88;5036777;28;20414;-68
2023/03/08 08:46:33;;;;;;;13.82;5.53;;;;;;;-144.47;94.74;53034.84;5017733;28;20032;-66
2023/03/08 08:49:00;;;;;;;10.30;5.28;;;;;;;-144.47;92.80;53016.97;5011518;28;20069;-68
2023/03/08 08:51:26;;;;;;;11.10;5.15;;;;;;;-144.47;93.48;53018.97;5022501;28;20052;-70
2023/03/08 08:53:52;;;;;;;10.27;4.80;;;;;;;-144.47;92.74;53007.03;5018882;28;20137;-66
2023/03/08 08:56:21;;;;;;;9.23;4.65;;;;;;;-144.47;91.99;52995.13;5029307;28;20034;-69
2023/03/08 08:58:47;;;;;;;9.97;4.50;;;;;;;-144.47;91.91;52995.13;5030576;28;20123;-66
2023/03/08 09:01:21;;;;;;;13.63;4.63;;;;;;;-144.47;91.67;52999.09;5018506;28;20010;-65
2023/03/08 09:03:47;;;;;;;12.52;4.80;;;;;;;-144.47;90.70;53007.03;5021203;28;20033;-66
2023/03/08 09:06:14;;;;;;;12.52;4.93;;;;;;;-144.47;90.43;53011.00;5030587;28;20467;-66
2023/03/08 09:08:39;;;;;;;10.07;4.60;;;;;;;-144.47;88.91;53009.03;5044846;28;20175;-66
2023/03/08 09:11:07;;;;;;;12.02;5.13;;;;;;;-144.47;89.07;53003.06;5028268;28;20137;-66
2023/03/08 09:13:33;;;;;;;9.85;4.35;;;;;;;-144.47;88.68;52999.09;5015922;28;20416;-65
2023/03/08 09:15:58;;;;;;;12.88;5.95;;;;;;;-144.47;89.60;52961.34;5014865;28;20026;-67
2023/03/08 09:18:24;;;;;;;10.05;5.00;;;;;;;-144.47;89.31;53007.03;5015339;28;20068;-68
2023/03/08 09:20:49;;;;;;;12.52;5.30;;;;;;;-144.47;89.18;53034.84;5015304;28;20014;-68
2023/03/08 09:23:14;;;;;;;11.25;5.85;;;;;;;-144.47;88.73;53032.88;5020790;28;20029;-66
2023/03/08 09:25:40;;;;;;;11.82;5.72;;;;;;;-144.47;88.99;53020.94;5028767;28;20098;-68
2023/03/08 09:28:05;;;;;;;10.30;5.25;;;;;;;-144.47;91.10;53003.06;5031741;28;20127;-67
2023/03/08 09:30:31;;;;;;;14.88;6.68;;;;;;;-144.47;91.12;52995.13;5035861;28;20101;-67
2023/03/08 09:32:58;;;;;;;12.13;6.07;;;;;;;-144.47;90.54;52989.16;5021652;28;20025;-66
2023/03/08 09:35:24;;;;;;;13.10;7.07;;;;;;;-144.47;90.18;53011.00;5023732;28;20047;-67
2023/03/08 09:37:49;;;;;;;12.73;6.70;;;;;;;-144.47;91.42;53011.00;5021787;28;20455;-66
2023/03/08 09:40:26;;;;;;;13.75;5.50;;;;;;;-144.47;91.89;53046.75;5013974;28;20029;-67
2023/03/08 09:42:56;;;;;;;10.13;5.07;;;;;;;-144.47;91.63;53022.94;5015774;28;20045;-66
2023/03/08 09:45:27;;;;;;;10.70;5.18;;;;;;;-144.47;92.89;53026.91;5014756;28;20025;-68
2023/03/08 09:47:58;;;;;;;13.80;6.20;;;;;;;-144.47;93.54;52999.09;5016503;28;20025;-68
2023/03/08 09:50:50;;;;;;;10.35;5.30;;;;;;;-144.47;93.96;53022.94;5023294;28;20641;-68
2023/03/08 09:53:23;;;;;;;10.40;5.47;;;;;;;-144.47;94.44;53040.81;5002105;28;20108;-68
2023/03/08 09:56:27;;;;;;;10.85;4.95;;;;;;;-144.47;94.92;53015.00;5012645;28;20033;-68
2023/03/08 09:59:11;;;;;;;9.52;4.60;;;;;;;-144.47;95.21;53042.78;5013966;28;20084;-68
2023/03/08 10:01:59;;;;;;;12.05;5.22;;;;;;;-144.47;94.43;53013.00;5011572;28;20413;-65
2023/03/08 10:04:47;;;;;;;12.07;4.80;;;;;;;-144.47;94.45;53013.00;5012074;28;20117;-68
2023/03/08 10:07:36;;;;;;;10.35;5.32;;;;;;;-144.47;94.32;53030.88;5012271;28;20509;-65
2023/03/08 10:10:28;;;;;;;10.50;5.03;;;;;;;-144.47;94.90;53005.06;5003282;28;20395;-69
2023/03/08 10:12:56;;;;;;;11.07;5.30;;;;;;;-144.47;94.97;53022.94;5001543;28;20526;-67
2023/03/08 10:15:25;;;;;;;15.13;6.55;;;;;;;-144.47;94.90;53013.00;5014184;28;20037;-65
2023/03/08 10:17:59;;;;;;;8.75;4.93;;;;;;;-144.47;95.17;53018.97;5023281;28;20506;-66
2023/03/08 10:20:28;;;;;;;14.23;6.43;;;;;;;-144.47;94.72;53011.00;5013392;28;20075;-67
2023/03/08 10:23:21;;;;;;;13.10;5.95;;;;;;;-144.47;94.99;53016.97;5017450;28;20108;-64
2023/03/08 10:25:48;;;;;;;15.32;6.97;;;;;;;-144.47;95.36;53026.91;5018278;28;20068;-66
2023/03/08 10:28:20;;;;;;;13.55;6.55;;;;;;;-144.47;94.56;53044.78;5031479;28;20399;-69
2023/03/08 10:30:46;;;;;;;13.82;7.00;;;;;;;-144.47;95.72;53040.81;5023706;28;20036;-69
2023/03/08 10:33:13;;;;;;;14.43;6.32;;;;;;;-144.47;94.94;53022.94;5012027;28;20033;-68
2023/03/08 10:35:54;;;;;;;16.10;7.22;;;;;;;-144.47;95.19;53040.81;5024402;28;20371;-65
2023/03/08 10:38:20;;;;;;;17.58;9.13;;;;;;;-144.47;96.19;53003.06;5035361;28;20128;-67
2023/03/08 10:40:46;;;;;;;14.25;7.35;;;;;;;-144.47;95.86;53016.97;5027724;28;20545;-69
2023/03/08 10:43:28;;;;;;;11.27;5.80;;;;;;;-144.47;94.26;53036.84;5012749;28;20030;-66
2023/03/08 10:46:09;;;;;;;12.85;6.22;;;;;;;-144.47;96.63;53082.53;5012812;28;20022;-67
2023/03/08 10:48:35;;;;;;;15.00;7.03;;;;;;;-144.47;96.37;53048.75;5013646;28;20033;-67
2023/03/08 10:51:04;;;;;;;16.05;7.28;;;;;;;-144.47;97.29;53042.78;5015521;28;20034;-69
2023/03/08 10:53:31;;;;;;;12.55;7.45;;;;;;;-144.47;96.92;53020.94;5012542;28;20330;-68
2023/03/08 10:55:59;;;;;;;12.50;6.47;;;;;;;-144.47;96.24;53024.91;5011749;28;20041;-69
2023/03/08 10:58:27;;;;;;;13.90;5.88;;;;;;;-144.47;96.57;53048.75;5019805;28;20048;-67
2023/03/08 11:00:54;;;;;;;11.27;5.82;;;;;;;-144.47;96.57;53024.91;5015239;28;20048;-69
2023/03/08 11:03:23;;;;;;;10.93;5.88;;;;;;;-144.47;97.47;53030.88;5011088;28;20045;-68
2023/03/08 11:05:51;;;;;;;11.27;6.35;;;;;;;-144.47;98.63;53036.84;5017095;28;20033;-67
2023/03/08 11:08:19;;;;;;;12.82;6.68;;;;;;;-144.47;99.24;53050.75;5017390;28;20167;-67
2023/03/08 11:10:45;;;;;;;19.20;9.80;;;;;;;-144.47;98.96;53056.69;5030983;28;20026;-66